createdAt,value
2018-03-03T00:00:56.312Z,16.50
2018-03-03T00:02:01.338Z,16.50
2018-03-03T00:03:06.306Z,16.50
2018-03-03T00:04:11.355Z,16.60
2018-03-03T00:05:16.331Z,16.60
2018-03-03T00:06:21.364Z,16.50
2018-03-03T00:07:26.433Z,16.60
2018-03-03T00:08:31.737Z,16.60
2018-03-03T00:09:36.679Z,16.50
2018-03-03T00:10:41.794Z,16.50
2018-03-03T00:11:46.799Z,16.50
2018-03-03T00:12:51.920Z,16.50
2018-03-03T00:13:56.963Z,16.50
2018-03-03T00:15:01.955Z,16.60
2018-03-03T00:16:06.982Z,16.60
2018-03-03T00:17:12.013Z,16.50
2018-03-03T00:18:16.914Z,16.50
2018-03-03T00:19:22.008Z,16.50
2018-03-03T00:20:27.081Z,16.50
2018-03-03T00:21:32.091Z,16.50
2018-03-03T00:22:37.151Z,16.50
2018-03-03T00:23:42.178Z,16.50
2018-03-03T00:24:47.296Z,16.50
2018-03-03T00:25:52.400Z,16.50
2018-03-03T00:26:57.352Z,16.50
2018-03-03T00:28:02.395Z,16.50
2018-03-03T00:29:07.372Z,16.40
2018-03-03T00:30:12.417Z,16.40
2018-03-03T00:31:17.514Z,16.40
2018-03-03T00:32:22.396Z,16.40
2018-03-03T00:33:27.537Z,16.40
2018-03-03T00:34:32.523Z,16.40
2018-03-03T00:35:37.388Z,16.40
2018-03-03T00:36:42.369Z,16.40
2018-03-03T00:37:47.328Z,16.40
2018-03-03T00:38:52.370Z,16.40
2018-03-03T00:39:57.343Z,16.40
2018-03-03T00:41:02.285Z,16.30
2018-03-03T00:42:07.229Z,16.40
2018-03-03T00:43:12.332Z,16.30
2018-03-03T00:44:17.310Z,16.40
2018-03-03T00:45:22.216Z,16.30
2018-03-03T00:46:27.189Z,16.30
2018-03-03T00:47:32.124Z,16.30
2018-03-03T00:48:37.092Z,16.30
2018-03-03T00:49:41.960Z,16.30
2018-03-03T00:50:46.821Z,16.30
2018-03-03T00:51:51.862Z,16.30
2018-03-03T00:52:56.969Z,16.30
2018-03-03T00:54:01.910Z,16.30
2018-03-03T00:55:06.760Z,16.30
2018-03-03T00:56:26.086Z,16.20
2018-03-03T00:57:30.916Z,16.20
2018-03-03T00:58:35.815Z,16.20
2018-03-03T00:59:40.752Z,16.20
2018-03-03T01:00:45.602Z,16.20
2018-03-03T01:01:50.391Z,16.20
2018-03-03T01:02:55.315Z,16.20
2018-03-03T01:04:00.220Z,16.20
2018-03-03T01:05:05.127Z,16.20
2018-03-03T01:06:09.995Z,16.20
2018-03-03T01:07:14.963Z,16.20
2018-03-03T01:08:19.860Z,16.20
2018-03-03T01:09:24.825Z,16.20
2018-03-03T01:10:29.630Z,16.20
2018-03-03T01:11:34.633Z,16.20
2018-03-03T01:12:39.422Z,16.20
2018-03-03T01:13:44.418Z,16.20
2018-03-03T01:14:49.323Z,16.20
2018-03-03T01:15:54.216Z,16.20
2018-03-03T01:16:59.107Z,16.20
2018-03-03T01:18:04.111Z,16.20
2018-03-03T01:19:09.175Z,16.20
2018-03-03T01:20:14.121Z,16.10
2018-03-03T01:21:19.174Z,16.20
2018-03-03T01:22:24.101Z,16.10
2018-03-03T01:23:28.994Z,16.20
2018-03-03T01:24:33.974Z,16.20
2018-03-03T01:25:38.999Z,16.10
2018-03-03T01:26:43.861Z,16.20
2018-03-03T01:27:48.891Z,16.20
2018-03-03T01:28:53.918Z,16.10
2018-03-03T01:29:58.752Z,16.10
2018-03-03T01:31:03.767Z,16.10
2018-03-03T01:32:08.622Z,16.10
2018-03-03T01:33:13.473Z,16.10
2018-03-03T01:34:18.471Z,16.10
2018-03-03T01:35:23.308Z,16.10
2018-03-03T01:36:28.351Z,16.10
2018-03-03T01:37:33.323Z,16.10
2018-03-03T01:38:38.251Z,16.10
2018-03-03T01:39:43.251Z,16.10
2018-03-03T01:40:48.198Z,16.10
2018-03-03T01:41:53.200Z,16.10
2018-03-03T01:42:58.023Z,16.10
2018-03-03T01:44:03.018Z,16.10
2018-03-03T01:45:07.970Z,16.10
2018-03-03T01:46:13.007Z,16.10
2018-03-03T01:47:17.961Z,16.10
2018-03-03T01:48:22.919Z,16.10
2018-03-03T01:49:27.929Z,16.10
2018-03-03T01:50:32.803Z,16.10
2018-03-03T01:51:37.929Z,16.10
2018-03-03T01:52:42.771Z,16.10
2018-03-03T01:53:47.837Z,16.10
2018-03-03T01:54:52.842Z,16.10
2018-03-03T01:55:57.884Z,16.10
2018-03-03T01:57:02.833Z,16.10
2018-03-03T01:58:07.754Z,16.10
2018-03-03T01:59:12.707Z,16.10
2018-03-03T02:00:17.573Z,16.10
2018-03-03T02:01:22.681Z,16.00
2018-03-03T02:02:27.661Z,16.10
2018-03-03T02:03:32.710Z,16.10
2018-03-03T02:04:37.591Z,16.00
2018-03-03T02:05:42.606Z,16.00
2018-03-03T02:06:47.683Z,16.00
2018-03-03T02:07:52.746Z,16.00
2018-03-03T02:08:57.745Z,16.00
2018-03-03T02:10:02.736Z,16.00
2018-03-03T02:11:07.742Z,16.00
2018-03-03T02:12:12.702Z,16.00
2018-03-03T02:13:17.623Z,16.00
2018-03-03T02:14:22.518Z,16.00
2018-03-03T02:15:27.511Z,16.00
2018-03-03T02:16:32.568Z,16.00
2018-03-03T02:17:37.552Z,16.00
2018-03-03T02:18:42.454Z,16.00
2018-03-03T02:19:47.497Z,16.00
2018-03-03T02:20:52.487Z,16.00
2018-03-03T02:21:57.329Z,16.00
2018-03-03T02:23:02.285Z,16.00
2018-03-03T02:24:07.298Z,16.00
2018-03-03T02:25:12.219Z,16.00
2018-03-03T02:26:17.057Z,15.90
2018-03-03T02:27:21.856Z,16.00
2018-03-03T02:28:26.895Z,15.90
2018-03-03T02:29:31.714Z,15.90
2018-03-03T02:30:36.717Z,15.90
2018-03-03T02:31:41.585Z,15.90
2018-03-03T02:32:46.480Z,15.90
2018-03-03T02:33:51.510Z,15.90
2018-03-03T02:34:56.474Z,15.90
2018-03-03T02:36:01.322Z,15.90
2018-03-03T02:37:06.279Z,15.90
2018-03-03T02:38:11.227Z,15.90
2018-03-03T02:39:16.249Z,15.90
2018-03-03T02:40:21.066Z,15.90
2018-03-03T02:41:25.955Z,15.90
2018-03-03T02:42:30.937Z,15.90
2018-03-03T02:43:35.818Z,15.90
2018-03-03T02:44:40.740Z,15.90
2018-03-03T02:45:45.528Z,15.90
2018-03-03T02:46:50.391Z,15.90
2018-03-03T02:47:55.303Z,15.90
2018-03-03T02:49:00.103Z,15.90
2018-03-03T02:50:05.073Z,15.90
2018-03-03T02:51:09.845Z,15.90
2018-03-03T02:52:14.756Z,15.90
2018-03-03T02:53:19.620Z,15.90
2018-03-03T02:54:24.616Z,15.90
2018-03-03T02:55:29.435Z,15.90
2018-03-03T02:56:34.422Z,15.90
2018-03-03T02:57:39.274Z,15.90
2018-03-03T02:58:44.260Z,15.90
2018-03-03T02:59:48.997Z,15.90
2018-03-03T03:00:53.800Z,15.90
2018-03-03T03:01:58.598Z,15.90
2018-03-03T03:03:03.571Z,15.90
2018-03-03T03:04:08.548Z,15.90
2018-03-03T03:05:13.315Z,15.90
2018-03-03T03:06:18.203Z,15.90
2018-03-03T03:07:23.165Z,15.80
2018-03-03T03:08:28.000Z,15.90
2018-03-03T03:09:32.817Z,15.90
2018-03-03T03:10:37.794Z,15.90
2018-03-03T03:11:42.602Z,15.90
2018-03-03T03:12:47.459Z,15.90
2018-03-03T03:13:52.463Z,15.80
2018-03-03T03:14:57.422Z,15.80
2018-03-03T03:16:02.285Z,15.80
2018-03-03T03:17:07.127Z,15.80
2018-03-03T03:18:12.050Z,15.80
2018-03-03T03:19:17.076Z,15.80
2018-03-03T03:20:22.070Z,15.80
2018-03-03T03:21:27.042Z,15.80
2018-03-03T03:22:32.074Z,15.80
2018-03-03T03:23:37.067Z,15.80
2018-03-03T03:24:41.895Z,15.80
2018-03-03T03:25:46.702Z,15.80
2018-03-03T03:26:51.644Z,15.80
2018-03-03T03:27:56.594Z,15.80
2018-03-03T03:29:01.565Z,15.80
2018-03-03T03:30:06.348Z,15.80
2018-03-03T03:31:11.205Z,15.80
2018-03-03T03:32:16.163Z,15.80
2018-03-03T03:33:21.171Z,15.80
2018-03-03T03:34:25.993Z,15.80
2018-03-03T03:35:30.778Z,15.80
2018-03-03T03:36:35.709Z,15.80
2018-03-03T03:37:40.540Z,15.80
2018-03-03T03:38:45.564Z,15.80
2018-03-03T03:39:50.548Z,15.80
2018-03-03T03:40:55.543Z,15.80
2018-03-03T03:42:00.366Z,15.80
2018-03-03T03:43:05.469Z,15.80
2018-03-03T03:44:10.290Z,15.80
2018-03-03T03:45:15.249Z,15.80
2018-03-03T03:46:20.043Z,15.80
2018-03-03T03:47:24.982Z,15.80
2018-03-03T03:48:30.195Z,15.80
2018-03-03T03:49:35.075Z,15.80
2018-03-03T03:50:39.937Z,15.80
2018-03-03T03:51:44.934Z,15.80
2018-03-03T03:52:49.838Z,15.80
2018-03-03T03:53:54.661Z,15.80
2018-03-03T03:54:59.597Z,15.80
2018-03-03T03:56:04.460Z,15.80
2018-03-03T03:57:09.294Z,15.80
2018-03-03T03:58:14.288Z,15.80
2018-03-03T03:59:19.133Z,15.80
2018-03-03T04:00:24.029Z,15.80
2018-03-03T04:01:28.878Z,15.80
2018-03-03T04:02:33.762Z,15.80
2018-03-03T04:03:38.593Z,15.80
2018-03-03T04:04:43.587Z,15.80
2018-03-03T04:05:48.603Z,15.80
2018-03-03T04:06:53.552Z,15.80
2018-03-03T04:07:58.563Z,15.80
2018-03-03T04:09:03.536Z,15.80
2018-03-03T04:10:08.369Z,15.80
2018-03-03T04:11:13.243Z,15.80
2018-03-03T04:12:18.098Z,15.80
2018-03-03T04:13:23.030Z,15.80
2018-03-03T04:14:27.901Z,15.80
2018-03-03T04:15:32.834Z,15.80
2018-03-03T04:16:37.607Z,15.80
2018-03-03T04:17:42.460Z,15.80
2018-03-03T04:18:48.316Z,15.80
2018-03-03T04:19:53.185Z,15.70
2018-03-03T04:20:58.154Z,15.70
2018-03-03T04:22:03.172Z,15.70
2018-03-03T04:23:08.020Z,15.70
2018-03-03T04:24:13.012Z,15.70
2018-03-03T04:25:17.960Z,15.70
2018-03-03T04:26:22.983Z,15.70
2018-03-03T04:27:27.998Z,15.70
2018-03-03T04:28:33.106Z,15.70
2018-03-03T04:29:37.992Z,15.70
2018-03-03T04:30:42.949Z,15.70
2018-03-03T04:31:47.792Z,15.70
2018-03-03T04:32:52.633Z,15.70
2018-03-03T04:33:57.589Z,15.70
2018-03-03T04:35:02.535Z,15.70
2018-03-03T04:36:07.524Z,15.70
2018-03-03T04:37:12.457Z,15.70
2018-03-03T04:38:17.462Z,15.70
2018-03-03T04:39:22.418Z,15.70
2018-03-03T04:40:27.406Z,15.70
2018-03-03T04:41:32.254Z,15.70
2018-03-03T04:42:37.340Z,15.70
2018-03-03T04:43:42.363Z,15.70
2018-03-03T04:44:47.207Z,15.70
2018-03-03T04:45:52.149Z,15.70
2018-03-03T04:46:56.975Z,15.70
2018-03-03T04:48:01.972Z,15.60
2018-03-03T04:49:06.792Z,15.60
2018-03-03T04:50:11.780Z,15.70
2018-03-03T04:51:16.767Z,15.70
2018-03-03T04:52:21.591Z,15.70
2018-03-03T04:53:26.623Z,15.60
2018-03-03T04:54:31.662Z,15.60
2018-03-03T04:55:36.594Z,15.60
2018-03-03T04:56:41.653Z,15.60
2018-03-03T04:57:46.608Z,15.60
2018-03-03T04:58:51.421Z,15.60
2018-03-03T04:59:56.385Z,15.60
2018-03-03T05:01:01.357Z,15.60
2018-03-03T05:02:07.068Z,15.60
2018-03-03T05:03:12.023Z,15.60
2018-03-03T05:04:16.972Z,15.60
2018-03-03T05:05:21.858Z,15.60
2018-03-03T05:06:26.786Z,15.60
2018-03-03T05:07:31.694Z,15.60
2018-03-03T05:08:36.496Z,15.60
2018-03-03T05:09:41.351Z,15.60
2018-03-03T05:10:46.278Z,15.60
2018-03-03T05:11:51.255Z,15.60
2018-03-03T05:12:56.230Z,15.60
2018-03-03T05:14:01.278Z,15.60
2018-03-03T05:15:06.160Z,15.60
2018-03-03T05:16:11.136Z,15.60
2018-03-03T05:17:16.088Z,15.60
2018-03-03T05:18:21.048Z,15.60
2018-03-03T05:19:25.917Z,15.60
2018-03-03T05:20:30.871Z,15.60
2018-03-03T05:21:35.830Z,15.60
2018-03-03T05:22:40.785Z,15.60
2018-03-03T05:23:45.555Z,15.60
2018-03-03T05:24:50.373Z,15.60
2018-03-03T05:25:55.345Z,15.60
2018-03-03T05:27:00.293Z,15.60
2018-03-03T05:28:05.240Z,15.60
2018-03-03T05:29:10.298Z,15.60
2018-03-03T05:30:15.090Z,15.60
2018-03-03T05:31:20.034Z,15.60
2018-03-03T05:32:24.918Z,15.60
2018-03-03T05:33:29.812Z,15.60
2018-03-03T05:34:34.741Z,15.60
2018-03-03T05:35:39.526Z,15.60
2018-03-03T05:36:44.382Z,15.60
2018-03-03T05:37:49.207Z,15.60
2018-03-03T05:38:54.013Z,15.60
2018-03-03T05:39:58.900Z,15.60
2018-03-03T05:41:03.699Z,15.60
2018-03-03T05:42:08.664Z,15.60
2018-03-03T05:43:13.528Z,15.60
2018-03-03T05:44:18.436Z,15.60
2018-03-03T05:45:23.409Z,15.60
2018-03-03T05:46:28.380Z,15.60
2018-03-03T05:47:33.203Z,15.60
2018-03-03T05:48:38.022Z,15.60
2018-03-03T05:49:43.033Z,15.60
2018-03-03T05:50:47.945Z,15.60
2018-03-03T05:51:52.930Z,15.60
2018-03-03T05:52:57.933Z,15.60
2018-03-03T05:54:02.932Z,15.60
2018-03-03T05:55:07.973Z,15.60
2018-03-03T05:56:12.983Z,15.60
2018-03-03T05:57:17.950Z,15.60
2018-03-03T05:58:22.770Z,15.60
2018-03-03T05:59:27.763Z,15.60
2018-03-03T06:00:32.555Z,15.60
2018-03-03T06:01:37.389Z,15.50
2018-03-03T06:02:42.429Z,15.50
2018-03-03T06:03:47.261Z,15.50
2018-03-03T06:04:52.315Z,15.50
2018-03-03T06:05:57.658Z,15.50
2018-03-03T06:07:02.708Z,15.50
2018-03-03T06:08:07.564Z,15.50
2018-03-03T06:09:12.368Z,15.50
2018-03-03T06:10:17.226Z,15.50
2018-03-03T06:11:22.189Z,15.60
2018-03-03T06:12:27.194Z,15.60
2018-03-03T06:13:32.071Z,15.60
2018-03-03T06:14:36.905Z,15.60
2018-03-03T06:15:41.930Z,15.60
2018-03-03T06:16:46.935Z,15.70
2018-03-03T06:17:51.931Z,15.80
2018-03-03T06:18:56.991Z,15.80
2018-03-03T06:20:01.854Z,15.90
2018-03-03T06:21:06.702Z,16.00
2018-03-03T06:22:13.350Z,16.00
2018-03-03T06:23:19.924Z,16.10
2018-03-03T06:24:25.053Z,16.20
2018-03-03T06:25:29.955Z,16.30
2018-03-03T06:26:34.948Z,16.40
2018-03-03T06:27:39.886Z,16.50
2018-03-03T06:28:44.830Z,16.60
2018-03-03T06:29:49.760Z,16.70
2018-03-03T06:30:54.828Z,16.80
2018-03-03T06:31:59.786Z,16.80
2018-03-03T06:33:04.716Z,17.00
2018-03-03T06:34:09.682Z,17.10
2018-03-03T06:35:14.642Z,17.30
2018-03-03T06:36:19.733Z,17.40
2018-03-03T06:37:24.646Z,17.60
2018-03-03T06:38:29.572Z,17.70
2018-03-03T06:39:34.422Z,17.80
2018-03-03T06:40:39.347Z,17.80
2018-03-03T06:41:44.163Z,17.90
2018-03-03T06:42:49.105Z,18.00
2018-03-03T06:43:53.922Z,18.00
2018-03-03T06:44:58.732Z,18.00
2018-03-03T06:46:03.701Z,18.00
2018-03-03T06:47:08.654Z,18.00
2018-03-03T06:48:13.511Z,18.00
2018-03-03T06:49:18.430Z,18.00
2018-03-03T06:50:23.368Z,18.00
2018-03-03T06:51:28.321Z,18.00
2018-03-03T06:52:33.198Z,18.00
2018-03-03T06:53:38.107Z,18.00
2018-03-03T06:54:42.954Z,18.00
2018-03-03T06:55:48.002Z,18.00
2018-03-03T06:56:52.957Z,18.00
2018-03-03T06:57:57.813Z,18.00
2018-03-03T06:59:02.639Z,18.00
2018-03-03T07:00:07.491Z,17.90
2018-03-03T07:01:12.424Z,17.90
2018-03-03T07:02:17.417Z,17.90
2018-03-03T07:03:22.361Z,17.90
2018-03-03T07:04:27.300Z,17.90
2018-03-03T07:05:32.269Z,17.90
2018-03-03T07:06:37.069Z,18.00
2018-03-03T07:07:42.194Z,18.00
2018-03-03T07:08:47.277Z,18.00
2018-03-03T07:09:52.241Z,18.00
2018-03-03T07:10:57.336Z,18.00
2018-03-03T07:12:02.349Z,18.00
2018-03-03T07:13:07.077Z,18.00
2018-03-03T07:14:11.925Z,18.00
2018-03-03T07:15:16.762Z,18.00
2018-03-03T07:16:22.078Z,18.00
2018-03-03T07:17:26.994Z,18.00
2018-03-03T07:18:31.741Z,18.00
2018-03-03T07:19:36.565Z,18.00
2018-03-03T07:20:41.354Z,17.90
2018-03-03T07:21:46.308Z,17.90
2018-03-03T07:22:51.142Z,17.80
2018-03-03T07:23:56.197Z,17.80
2018-03-03T07:25:01.585Z,17.80
2018-03-03T07:26:06.574Z,17.80
2018-03-03T07:27:11.400Z,17.80
2018-03-03T07:28:16.422Z,17.70
2018-03-03T07:29:21.369Z,17.70
2018-03-03T07:30:26.308Z,17.70
2018-03-03T07:31:31.264Z,17.60
2018-03-03T07:32:36.266Z,17.60
2018-03-03T07:33:41.226Z,17.60
2018-03-03T07:34:46.247Z,17.60
2018-03-03T07:35:51.200Z,17.60
2018-03-03T07:36:55.981Z,17.60
2018-03-03T07:38:00.884Z,17.60
2018-03-03T07:39:05.930Z,17.60
2018-03-03T07:40:10.985Z,17.60
2018-03-03T07:41:15.943Z,17.60
2018-03-03T07:42:20.816Z,17.60
2018-03-03T07:43:25.741Z,17.60
2018-03-03T07:44:30.813Z,17.60
2018-03-03T07:45:35.852Z,17.60
2018-03-03T07:46:41.146Z,17.60
2018-03-03T07:47:45.983Z,17.60
2018-03-03T07:48:51.263Z,17.60
2018-03-03T07:49:56.227Z,17.60
2018-03-03T07:51:01.409Z,17.50
2018-03-03T07:52:06.388Z,17.50
2018-03-03T07:53:11.347Z,17.50
2018-03-03T07:54:16.302Z,17.50
2018-03-03T07:55:21.228Z,17.50
2018-03-03T07:56:26.248Z,17.50
2018-03-03T07:57:31.275Z,17.50
2018-03-03T07:58:36.403Z,17.50
2018-03-03T07:59:41.534Z,17.50
2018-03-03T08:00:46.400Z,17.50
2018-03-03T08:01:51.301Z,17.50
2018-03-03T08:02:56.341Z,17.50
2018-03-03T08:04:02.005Z,17.50
2018-03-03T08:05:08.512Z,17.50
2018-03-03T08:06:13.799Z,17.40
2018-03-03T08:07:18.763Z,17.40
2018-03-03T08:08:23.736Z,17.40
2018-03-03T08:09:28.580Z,17.40
2018-03-03T08:10:33.512Z,17.40
2018-03-03T08:11:38.471Z,17.30
2018-03-03T08:12:43.428Z,17.30
2018-03-03T08:13:48.447Z,17.40
2018-03-03T08:14:53.469Z,17.40
2018-03-03T08:15:58.449Z,17.30
2018-03-03T08:17:03.499Z,17.30
2018-03-03T08:18:08.447Z,17.40
2018-03-03T08:19:13.345Z,17.30
2018-03-03T08:20:18.332Z,17.40
2018-03-03T08:21:23.448Z,17.40
2018-03-03T08:22:28.384Z,17.40
2018-03-03T08:23:33.428Z,17.40
2018-03-03T08:24:38.302Z,17.40
2018-03-03T08:25:43.210Z,17.40
2018-03-03T08:26:48.236Z,17.40
2018-03-03T08:27:53.170Z,17.40
2018-03-03T08:28:58.327Z,17.40
2018-03-03T08:30:03.236Z,17.40
2018-03-03T08:31:08.273Z,17.40
2018-03-03T08:32:13.138Z,17.40
2018-03-03T08:33:18.060Z,17.50
2018-03-03T08:34:22.946Z,17.50
2018-03-03T08:35:27.789Z,17.50
2018-03-03T08:36:32.716Z,17.50
2018-03-03T08:37:37.710Z,17.50
2018-03-03T08:38:42.643Z,17.50
2018-03-03T08:39:47.604Z,17.60
2018-03-03T08:40:52.498Z,17.50
2018-03-03T08:41:57.247Z,17.50
2018-03-03T08:43:02.206Z,17.50
2018-03-03T08:44:07.098Z,17.50
2018-03-03T08:45:12.110Z,17.60
2018-03-03T08:46:17.043Z,17.60
2018-03-03T08:47:22.087Z,17.60
2018-03-03T08:48:27.037Z,17.50
2018-03-03T08:49:32.019Z,17.50
2018-03-03T08:50:36.886Z,17.50
2018-03-03T08:51:41.701Z,17.50
2018-03-03T08:52:46.686Z,17.50
2018-03-03T08:53:51.663Z,17.50
2018-03-03T08:54:56.585Z,17.50
2018-03-03T08:56:01.655Z,17.50
2018-03-03T08:57:06.774Z,17.50
2018-03-03T08:58:11.703Z,17.50
2018-03-03T08:59:17.543Z,17.50
2018-03-03T09:00:22.412Z,17.60
2018-03-03T09:01:27.277Z,17.70
2018-03-03T09:02:32.866Z,17.70
2018-03-03T09:03:38.092Z,17.80
2018-03-03T09:04:43.111Z,17.90
2018-03-03T09:05:48.203Z,17.90
2018-03-03T09:06:53.258Z,18.10
2018-03-03T09:07:58.317Z,18.10
2018-03-03T09:09:03.323Z,18.10
2018-03-03T09:10:08.323Z,18.00
2018-03-03T09:11:13.174Z,18.00
2018-03-03T09:12:18.218Z,17.90
2018-03-03T09:13:23.258Z,17.80
2018-03-03T09:14:28.250Z,17.80
2018-03-03T09:15:33.321Z,17.70
2018-03-03T09:16:38.344Z,17.70
2018-03-03T09:17:43.225Z,17.70
2018-03-03T09:18:48.226Z,17.60
2018-03-03T09:19:53.780Z,17.60
2018-03-03T09:20:59.091Z,17.60
2018-03-03T09:22:04.018Z,17.60
2018-03-03T09:23:08.988Z,17.50
2018-03-03T09:24:13.909Z,17.50
2018-03-03T09:25:18.790Z,17.50
2018-03-03T09:26:23.696Z,17.40
2018-03-03T09:27:28.881Z,17.50
2018-03-03T09:28:33.971Z,17.50
2018-03-03T09:29:38.801Z,17.50
2018-03-03T09:30:43.736Z,17.50
2018-03-03T09:31:48.733Z,17.50
2018-03-03T09:32:53.602Z,17.50
2018-03-03T09:33:58.657Z,17.50
2018-03-03T09:35:03.656Z,17.50
2018-03-03T09:36:08.667Z,17.50
2018-03-03T09:37:13.628Z,17.50
2018-03-03T09:38:18.723Z,17.40
2018-03-03T09:39:23.633Z,17.40
2018-03-03T09:40:28.703Z,17.40
2018-03-03T09:41:33.628Z,17.40
2018-03-03T09:42:38.507Z,17.50
2018-03-03T09:43:43.501Z,17.50
2018-03-03T09:44:48.490Z,17.50
2018-03-03T09:45:53.473Z,17.50
2018-03-03T09:46:58.550Z,17.50
2018-03-03T09:48:03.393Z,17.50
2018-03-03T09:49:08.472Z,17.50
2018-03-03T09:50:13.464Z,17.50
2018-03-03T09:51:18.390Z,17.50
2018-03-03T09:52:23.473Z,17.50
2018-03-03T09:53:28.453Z,17.50
2018-03-03T09:54:33.372Z,17.50
2018-03-03T09:55:38.386Z,17.40
2018-03-03T09:56:43.242Z,17.40
2018-03-03T09:57:48.136Z,17.40
2018-03-03T09:58:52.979Z,17.40
2018-03-03T09:59:57.968Z,17.40
2018-03-03T10:01:02.828Z,17.40
2018-03-03T10:02:07.830Z,17.40
2018-03-03T10:03:12.803Z,17.40
2018-03-03T10:04:17.915Z,17.40
2018-03-03T10:05:22.947Z,17.40
2018-03-03T10:06:28.124Z,17.50
2018-03-03T10:07:32.966Z,17.40
2018-03-03T10:08:37.796Z,17.40
2018-03-03T10:09:42.842Z,17.40
2018-03-03T10:10:47.956Z,17.40
2018-03-03T10:11:52.814Z,17.40
2018-03-03T10:12:57.810Z,17.50
2018-03-03T10:14:02.818Z,17.40
2018-03-03T10:15:07.804Z,17.40
2018-03-03T10:16:12.817Z,17.40
2018-03-03T10:17:17.743Z,17.50
2018-03-03T10:18:22.839Z,17.50
2018-03-03T10:19:27.839Z,17.50
2018-03-03T10:20:32.782Z,17.60
2018-03-03T10:21:37.741Z,17.70
2018-03-03T10:27:02.447Z,17.80
2018-03-03T10:28:07.355Z,17.80
2018-03-03T10:29:12.192Z,18.10
2018-03-03T10:30:17.181Z,18.10
2018-03-03T10:31:22.053Z,18.10
2018-03-03T10:32:27.095Z,18.10
2018-03-03T10:33:32.019Z,18.00
2018-03-03T10:34:36.904Z,17.90
2018-03-03T10:35:41.732Z,17.90
2018-03-03T10:36:46.612Z,17.90
2018-03-03T10:37:51.671Z,17.90
2018-03-03T10:38:56.627Z,17.90
2018-03-03T10:40:01.457Z,18.00
2018-03-03T10:41:06.336Z,18.00
2018-03-03T10:42:11.285Z,18.00
2018-03-03T10:43:16.239Z,18.00
2018-03-03T10:44:21.175Z,18.00
2018-03-03T10:45:26.410Z,18.00
2018-03-03T10:46:31.303Z,18.10
2018-03-03T10:47:36.294Z,18.10
2018-03-03T10:48:41.347Z,18.10
2018-03-03T10:49:46.435Z,18.00
2018-03-03T10:50:51.491Z,18.00
2018-03-03T10:51:56.594Z,18.00
2018-03-03T10:53:01.768Z,18.00
2018-03-03T10:54:06.840Z,17.90
2018-03-03T10:55:11.898Z,17.90
2018-03-03T10:56:16.803Z,17.90
2018-03-03T10:57:21.743Z,17.90
2018-03-03T10:58:26.723Z,17.80
2018-03-03T10:59:31.646Z,17.80
2018-03-03T11:00:36.545Z,17.80
2018-03-03T11:01:41.603Z,17.80
2018-03-03T11:02:46.454Z,17.80
2018-03-03T11:03:51.446Z,17.70
2018-03-03T11:04:56.357Z,17.70
2018-03-03T11:06:01.546Z,17.70
2018-03-03T11:07:06.477Z,17.70
2018-03-03T11:08:11.586Z,17.70
2018-03-03T11:09:16.575Z,17.60
2018-03-03T11:10:21.537Z,17.60
2018-03-03T11:11:26.647Z,17.60
2018-03-03T11:12:31.558Z,17.60
2018-03-03T11:13:36.553Z,17.60
2018-03-03T11:14:41.546Z,17.60
2018-03-03T11:15:46.484Z,17.60
2018-03-03T11:16:51.533Z,17.50
2018-03-03T11:17:56.857Z,17.50
2018-03-03T11:19:01.966Z,17.50
2018-03-03T11:20:06.871Z,17.50
2018-03-03T11:21:11.737Z,17.50
2018-03-03T11:22:16.883Z,17.50
2018-03-03T11:23:22.352Z,17.50
2018-03-03T11:24:27.276Z,17.50
2018-03-03T11:25:32.114Z,17.50
2018-03-03T11:26:37.198Z,17.50
2018-03-03T11:27:42.166Z,17.50
2018-03-03T11:28:47.160Z,17.50
2018-03-03T11:29:52.151Z,17.50
2018-03-03T11:30:57.174Z,17.50
2018-03-03T11:32:02.175Z,17.50
2018-03-03T11:33:07.132Z,17.50
2018-03-03T11:34:11.908Z,17.50
2018-03-03T11:35:17.050Z,17.50
2018-03-03T11:36:22.049Z,17.50
2018-03-03T11:37:27.397Z,17.50
2018-03-03T11:38:32.312Z,17.50
2018-03-03T11:39:37.258Z,17.50
2018-03-03T11:40:42.531Z,17.50
2018-03-03T11:41:47.695Z,17.60
2018-03-03T11:42:52.807Z,17.60
2018-03-03T11:43:57.794Z,17.50
2018-03-03T11:45:02.799Z,17.60
2018-03-03T11:46:07.827Z,17.60
2018-03-03T11:47:12.633Z,17.60
2018-03-03T11:48:17.435Z,17.60
2018-03-03T11:49:22.607Z,17.60
2018-03-03T11:50:27.720Z,17.60
2018-03-03T11:51:32.837Z,17.60
2018-03-03T11:52:37.890Z,17.60
2018-03-03T11:53:43.038Z,17.60
2018-03-03T11:54:48.048Z,17.60
2018-03-03T11:55:52.956Z,17.60
2018-03-03T11:56:58.054Z,17.60
2018-03-03T11:58:03.034Z,17.60
2018-03-03T11:59:08.043Z,17.60
2018-03-03T12:00:12.983Z,17.60
2018-03-03T12:01:18.015Z,17.60
2018-03-03T12:02:22.997Z,17.60
2018-03-03T12:03:28.006Z,17.60
2018-03-03T12:04:33.112Z,17.60
2018-03-03T12:05:38.182Z,17.60
2018-03-03T12:06:43.159Z,17.60
2018-03-03T12:07:48.823Z,17.60
2018-03-03T12:08:53.819Z,17.60
2018-03-03T12:09:58.829Z,17.60
2018-03-03T12:11:03.833Z,17.30
2018-03-03T12:12:08.742Z,16.90
2018-03-03T12:13:13.928Z,16.50
2018-03-03T12:14:18.921Z,16.10
2018-03-03T12:15:23.772Z,15.80
2018-03-03T12:16:28.693Z,15.50
2018-03-03T12:17:33.765Z,15.20
2018-03-03T12:18:38.817Z,15.20
2018-03-03T12:19:43.784Z,15.30
2018-03-03T12:20:48.746Z,15.50
2018-03-03T12:21:54.431Z,15.70
2018-03-03T12:22:59.395Z,15.90
2018-03-03T12:24:04.290Z,16.10
2018-03-03T12:25:09.094Z,16.30
2018-03-03T12:26:13.886Z,16.40
2018-03-03T12:27:18.960Z,16.60
2018-03-03T12:28:24.068Z,16.70
2018-03-03T12:29:28.894Z,16.80
2018-03-03T12:30:34.005Z,16.90
2018-03-03T12:31:39.097Z,17.00
2018-03-03T12:32:44.056Z,17.00
2018-03-03T12:33:49.258Z,17.10
2018-03-03T12:34:54.384Z,17.10
2018-03-03T12:35:59.289Z,17.10
2018-03-03T12:37:04.304Z,17.20
2018-03-03T12:38:09.186Z,17.20
2018-03-03T12:39:14.266Z,17.20
2018-03-03T12:40:19.234Z,17.20
2018-03-03T12:41:24.303Z,17.20
2018-03-03T12:42:29.436Z,17.30
2018-03-03T12:43:34.481Z,17.30
2018-03-03T12:44:39.531Z,17.30
2018-03-03T12:45:44.508Z,17.30
2018-03-03T12:46:49.505Z,17.30
2018-03-03T12:47:54.391Z,17.30
2018-03-03T12:48:59.404Z,17.30
2018-03-03T12:50:04.268Z,17.40
2018-03-03T12:51:09.272Z,17.40
2018-03-03T12:52:14.219Z,17.40
2018-03-03T12:53:19.301Z,17.40
2018-03-03T12:54:24.210Z,17.40
2018-03-03T12:55:29.111Z,17.40
2018-03-03T12:56:34.130Z,17.40
2018-03-03T12:57:39.154Z,17.40
2018-03-03T12:58:44.002Z,17.50
2018-03-03T12:59:49.246Z,17.50
2018-03-03T13:00:54.143Z,17.50
2018-03-03T13:01:59.169Z,17.50
2018-03-03T13:03:04.080Z,17.50
2018-03-03T13:04:09.190Z,17.50
2018-03-03T13:05:14.912Z,17.50
2018-03-03T13:06:20.353Z,17.50
2018-03-03T13:07:25.391Z,17.50
2018-03-03T13:08:30.422Z,17.50
2018-03-03T13:09:36.536Z,17.50
2018-03-03T13:10:41.577Z,17.50
2018-03-03T13:11:46.414Z,17.50
2018-03-03T13:12:51.322Z,17.40
2018-03-03T13:13:56.075Z,17.40
2018-03-03T13:15:01.159Z,17.40
2018-03-03T13:16:06.222Z,17.40
2018-03-03T13:17:11.225Z,17.40
2018-03-03T13:18:16.208Z,17.50
2018-03-03T13:19:21.114Z,17.50
2018-03-03T13:20:26.065Z,17.50
2018-03-03T13:21:31.067Z,17.50
2018-03-03T13:22:35.968Z,17.50
2018-03-03T13:23:40.877Z,17.50
2018-03-03T13:24:45.803Z,17.50
2018-03-03T13:25:50.866Z,17.50
2018-03-03T13:26:55.756Z,17.60
2018-03-03T13:28:00.683Z,17.60
2018-03-03T13:29:05.799Z,17.60
2018-03-03T13:30:10.817Z,17.60
2018-03-03T13:31:15.816Z,17.60
2018-03-03T13:32:20.835Z,17.70
2018-03-03T13:33:25.931Z,17.70
2018-03-03T13:34:30.926Z,17.70
2018-03-03T13:35:35.866Z,17.70
2018-03-03T13:36:40.852Z,17.70
2018-03-03T13:37:45.992Z,17.70
2018-03-03T13:38:50.994Z,17.70
2018-03-03T13:39:56.027Z,17.80
2018-03-03T13:41:00.918Z,17.80
2018-03-03T13:42:05.910Z,17.80
2018-03-03T13:43:10.761Z,17.80
2018-03-03T13:44:15.770Z,17.80
2018-03-03T13:45:20.906Z,17.70
2018-03-03T13:46:25.785Z,17.80
2018-03-03T13:47:30.683Z,17.80
2018-03-03T13:48:35.618Z,17.70
2018-03-03T13:49:40.744Z,17.70
2018-03-03T13:50:45.836Z,17.80
2018-03-03T13:51:51.838Z,17.80
2018-03-03T13:52:57.022Z,17.80
2018-03-03T13:54:02.449Z,17.80
2018-03-03T13:55:07.253Z,17.70
2018-03-03T13:56:12.503Z,17.80
2018-03-03T13:57:17.401Z,17.90
2018-03-03T13:58:22.290Z,17.80
2018-03-03T13:59:27.317Z,17.80
2018-03-03T14:00:32.157Z,17.80
2018-03-03T14:01:37.172Z,17.90